Minto, Alaska
Current Conditions -  °F | °C
As of 1:53 PM on Monday 24 Nov 2014 (Local Time) from PANN Reporting Station
Few Clouds Few Clouds  
Wind Chill:   Ceiling: Unl
Heat Index:   Visibility: 10mi
Dew Point:   Wind: 0mph
Humidity: 80%   Direction: NA
Pressure: 29.8"   Gusts: NA
Location:  65.03°N, 149.53°W
Report Text: PANN 242253Z AUTO 00000KT 10SM FEW060 M15/M18 A2980 RMK AO2 SLP106 T11501178 TSNO
Loading
Personal Weather Stations






























Interactive Weather Map New forecast layout! Learn more

10-Day Weather Forecast

Advertisements
Track Severe Weather on mobile